Time;durP1;ratioP1;P1;durP2;ratioP2;P2;SDS_P1;SDS_P2;PMS_P1;PMS_P2;Temp;Humidity;BMP_temperature;BMP_pressure;BME280_temperature;BME280_humidity;BME280_pressure;Samples;Min_cycle;Max_cycle;Signal;HPM_P1;HPM_P2
2023/01/20 00:01:00;;;;;;;22.48;4.57;;;2.10;99.60;;;;;;5071646;28;20033;-75
2023/01/20 00:03:25;;;;;;;42.95;6.40;;;2.10;99.90;;;;;;5071690;28;20482;-74
2023/01/20 00:05:52;;;;;;;19.45;4.57;;;2.10;99.90;;;;;;5070886;28;20070;-75
2023/01/20 00:08:17;;;;;;;25.17;4.80;;;2.10;99.40;;;;;;5071481;28;20044;-74
2023/01/20 00:10:43;;;;;;;23.77;5.15;;;2.10;99.90;;;;;;5071517;28;20082;-74
2023/01/20 00:13:08;;;;;;;19.00;4.75;;;2.00;99.30;;;;;;5072217;28;20482;-74
2023/01/20 00:15:34;;;;;;;30.48;4.80;;;2.00;99.90;;;;;;5075037;28;20024;-74
2023/01/20 00:17:59;;;;;;;24.63;5.15;;;2.00;99.90;;;;;;5075624;28;20038;-74
2023/01/20 00:20:25;;;;;;;22.52;5.03;;;2.00;99.90;;;;;;5075714;28;20032;-74
2023/01/20 00:22:51;;;;;;;32.00;5.15;;;2.00;99.90;;;;;;5075152;28;20031;-75
2023/01/20 00:25:16;;;;;;;19.50;4.65;;;2.00;99.90;;;;;;5075173;28;20032;-73
2023/01/20 00:27:42;;;;;;;19.10;4.75;;;1.90;99.90;;;;;;5074673;28;20025;-73
2023/01/20 00:30:08;;;;;;;24.40;4.78;;;1.90;99.90;;;;;;5075209;28;20032;-73
2023/01/20 00:32:38;;;;;;;18.00;4.82;;;2.00;99.90;;;;;;5074892;28;20024;-75
2023/01/20 00:35:05;;;;;;;17.25;5.07;;;1.90;99.90;;;;;;5074936;28;20025;-73
2023/01/20 00:37:31;;;;;;;21.77;5.03;;;1.90;99.90;;;;;;5074510;28;20031;-75
2023/01/20 00:39:56;;;;;;;20.77;4.82;;;1.90;99.90;;;;;;5075038;28;20028;-74
2023/01/20 00:42:22;;;;;;;21.70;4.53;;;1.90;99.90;;;;;;5074925;28;20040;-74
2023/01/20 00:44:48;;;;;;;24.83;5.22;;;1.90;99.90;;;;;;5075406;28;20056;-74
2023/01/20 00:47:13;;;;;;;25.08;5.10;;;1.80;99.90;;;;;;5075495;28;20489;-73
2023/01/20 00:49:39;;;;;;;19.65;4.50;;;1.80;99.90;;;;;;5075102;28;20016;-73
2023/01/20 00:52:04;;;;;;;23.95;4.72;;;1.80;99.90;;;;;;5074577;28;20497;-73
2023/01/20 00:54:30;;;;;;;26.23;5.10;;;1.80;99.90;;;;;;5074764;28;20175;-73
2023/01/20 00:56:56;;;;;;;13.05;4.43;;;1.80;99.90;;;;;;5074231;28;20466;-73
2023/01/20 00:59:21;;;;;;;23.30;5.28;;;1.80;99.90;;;;;;5074687;28;20021;-75
2023/01/20 01:01:46;;;;;;;18.42;5.78;;;1.70;99.90;;;;;;5069818;28;20033;-73
2023/01/20 01:04:12;;;;;;;25.80;4.53;;;1.80;99.90;;;;;;5074346;28;20502;-73
2023/01/20 01:06:38;;;;;;;22.60;4.88;;;1.80;99.90;;;;;;5072572;28;20076;-75
2023/01/20 01:09:04;;;;;;;21.13;4.47;;;1.80;99.90;;;;;;5074734;28;20070;-73
2023/01/20 01:11:29;;;;;;;27.17;5.22;;;1.70;99.90;;;;;;5074375;28;20025;-74
2023/01/20 01:13:56;;;;;;;22.85;5.22;;;1.70;99.90;;;;;;5074463;28;20016;-73
2023/01/20 01:16:22;;;;;;;21.02;4.75;;;1.70;99.90;;;;;;5073669;28;20363;-73
2023/01/20 01:18:47;;;;;;;29.85;5.60;;;1.70;99.90;;;;;;5074284;28;20039;-73
2023/01/20 01:21:15;;;;;;;21.48;5.38;;;1.70;99.90;;;;;;5074025;28;20035;-74
2023/01/20 01:23:41;;;;;;;17.85;5.30;;;1.70;99.90;;;;;;5074222;28;20025;-72
2023/01/20 01:26:07;;;;;;;15.98;5.53;;;1.70;99.90;;;;;;5072892;28;20024;-74
2023/01/20 01:28:33;;;;;;;29.00;6.15;;;1.60;99.90;;;;;;5074256;28;20025;-73
2023/01/20 01:31:03;;;;;;;19.25;5.70;;;1.60;99.90;;;;;;5074046;28;20020;-73
2023/01/20 01:33:29;;;;;;;22.65;7.00;;;1.60;99.90;;;;;;5074131;28;20033;-73
2023/01/20 01:35:59;;;;;;;26.73;6.95;;;1.60;99.90;;;;;;5073340;28;20051;-74
2023/01/20 01:38:26;;;;;;;28.15;7.57;;;1.60;99.90;;;;;;5074120;28;20553;-74
2023/01/20 01:40:53;;;;;;;24.40;8.02;;;1.60;99.90;;;;;;5073933;28;20024;-73
2023/01/20 01:43:37;;;;;;;21.20;7.57;;;1.60;99.90;;;;;;5073963;28;20031;-74
2023/01/20 01:46:03;;;;;;;24.13;9.05;;;1.60;99.90;;;;;;5073057;28;20064;-74
2023/01/20 01:48:42;;;;;;;32.33;8.65;;;1.60;99.90;;;;;;5073671;28;20040;-74
2023/01/20 01:51:27;;;;;;;22.13;8.50;;;1.70;99.90;;;;;;5073568;28;20025;-75
2023/01/20 01:53:57;;;;;;;34.38;10.25;;;1.60;99.90;;;;;;5073737;28;20025;-75
2023/01/20 01:56:24;;;;;;;28.30;10.40;;;1.60;99.90;;;;;;5073012;28;20078;-76
2023/01/20 01:58:52;;;;;;;26.73;10.60;;;1.60;99.90;;;;;;5073523;28;20490;-74
2023/01/20 02:01:18;;;;;;;40.35;11.00;;;1.70;99.90;;;;;;5073464;28;20351;-74
2023/01/20 02:03:55;;;;;;;33.08;11.25;;;1.60;99.90;;;;;;5074048;28;20029;-74
2023/01/20 02:06:23;;;;;;;35.28;12.10;;;1.70;99.90;;;;;;5072824;28;20109;-74
2023/01/20 02:08:50;;;;;;;45.28;13.07;;;1.60;99.90;;;;;;5073428;28;20417;-74
2023/01/20 02:11:15;;;;;;;33.90;13.55;;;1.60;99.90;;;;;;5075408;28;20020;-74
2023/01/20 02:13:41;;;;;;;37.97;14.05;;;1.60;99.90;;;;;;5070605;28;20029;-74
2023/01/20 02:16:43;;;;;;;41.17;14.65;;;1.60;99.90;;;;;;5074213;28;20032;-73
2023/01/20 02:19:42;;;;;;;37.92;15.40;;;1.60;99.90;;;;;;5073195;28;20082;-75
2023/01/20 02:22:28;;;;;;;48.85;17.00;;;1.60;99.90;;;;;;5073108;28;20063;-74
2023/01/20 02:24:53;;;;;;;48.83;16.92;;;1.60;99.90;;;;;;5055249;28;20028;-74
2023/01/20 02:27:38;;;;;;;56.75;17.38;;;1.60;99.90;;;;;;5072192;28;20413;-74
2023/01/20 02:30:33;;;;;;;32.42;12.18;;;1.60;99.90;;;;;;5073061;28;20016;-74
2023/01/20 02:33:06;;;;;;;50.13;18.27;;;1.60;99.90;;;;;;5072903;28;20485;-73
2023/01/20 02:35:37;;;;;;;40.20;18.27;;;1.70;99.90;;;;;;5071993;28;20367;-74
2023/01/20 02:38:06;;;;;;;55.35;20.20;;;1.70;99.90;;;;;;5071775;28;20434;-73
2023/01/20 02:40:58;;;;;;;48.97;20.15;;;1.60;99.90;;;;;;5072489;28;20028;-73
2023/01/20 02:43:56;;;;;;;44.92;21.10;;;1.60;99.90;;;;;;5072778;28;20075;-74
2023/01/20 02:46:31;;;;;;;45.88;21.55;;;1.60;99.90;;;;;;5068014;28;20047;-73
2023/01/20 02:49:15;;;;;;;53.08;23.70;;;1.60;99.90;;;;;;5082607;28;20104;-74
2023/01/20 02:52:00;;;;;;;47.10;23.10;;;1.60;99.90;;;;;;5074142;28;20481;-74
2023/01/20 02:54:28;;;;;;;59.03;25.52;;;1.70;99.90;;;;;;5072566;28;20017;-73
2023/01/20 02:56:56;;;;;;;70.95;27.80;;;1.60;99.90;;;;;;5071918;28;20403;-73
2023/01/20 02:59:43;;;;;;;65.55;27.13;;;1.70;99.90;;;;;;5060586;28;20049;-74
2023/01/20 03:02:15;;;;;;;57.95;27.40;;;1.60;99.90;;;;;;5054443;28;20508;-73
2023/01/20 03:04:49;;;;;;;59.70;29.08;;;1.60;99.90;;;;;;5072993;28;20027;-74
2023/01/20 03:07:16;;;;;;;58.28;28.40;;;1.60;99.90;;;;;;5075492;28;20032;-74
2023/01/20 03:09:52;;;;;;;65.88;30.50;;;1.60;99.90;;;;;;5078318;28;20035;-75
2023/01/20 03:12:23;;;;;;;62.78;30.63;;;1.50;99.90;;;;;;5078104;28;20031;-74
2023/01/20 03:14:50;;;;;;;67.88;31.63;;;1.50;99.90;;;;;;5084039;28;20032;-75
2023/01/20 03:17:16;;;;;;;79.55;32.83;;;1.40;99.90;;;;;;5081877;28;20027;-75
2023/01/20 03:19:42;;;;;;;67.70;32.28;;;1.50;99.90;;;;;;5080806;28;20028;-73
2023/01/20 03:22:08;;;;;;;72.75;31.92;;;1.60;99.90;;;;;;5071929;28;20562;-74
2023/01/20 03:24:36;;;;;;;75.50;34.53;;;1.70;99.90;;;;;;5071966;28;20059;-73
2023/01/20 03:27:01;;;;;;;71.30;34.63;;;1.60;99.90;;;;;;5071364;28;20025;-75
2023/01/20 03:29:29;;;;;;;72.15;35.95;;;1.70;99.90;;;;;;5072039;28;20032;-75
2023/01/20 03:31:58;;;;;;;76.95;37.78;;;1.70;99.90;;;;;;5071959;28;20017;-75
2023/01/20 03:34:25;;;;;;;83.45;38.25;;;1.60;99.90;;;;;;5072102;28;20027;-75
2023/01/20 03:36:52;;;;;;;85.25;37.60;;;1.70;99.90;;;;;;5074600;28;20024;-75
2023/01/20 03:39:19;;;;;;;73.30;37.67;;;1.70;99.90;;;;;;5080092;28;20058;-74
2023/01/20 03:42:04;;;;;;;76.60;37.97;;;1.70;99.90;;;;;;5063234;28;20474;-74
2023/01/20 03:44:48;;;;;;;73.90;39.47;;;1.70;99.90;;;;;;5073955;28;20017;-74
2023/01/20 03:47:16;;;;;;;85.38;39.83;;;1.70;99.90;;;;;;5071555;28;20485;-76
2023/01/20 03:50:21;;;;;;;87.13;40.97;;;1.60;99.90;;;;;;5071638;28;20104;-76
2023/01/20 03:52:52;;;;;;;61.53;32.60;;;1.60;99.90;;;;;;5081175;28;20020;-75
2023/01/20 03:55:24;;;;;;;95.03;44.28;;;1.70;99.90;;;;;;5076726;28;20040;-76
2023/01/20 03:58:07;;;;;;;86.40;43.20;;;1.70;99.90;;;;;;5071803;28;20104;-76
2023/01/20 04:00:36;;;;;;;86.82;42.60;;;1.70;99.90;;;;;;5071656;28;20119;-74
2023/01/20 04:03:06;;;;;;;90.35;44.85;;;1.70;99.90;;;;;;5071458;28;20029;-73
2023/01/20 04:05:32;;;;;;;100.05;46.92;;;1.70;99.90;;;;;;5070872;28;20074;-74
2023/01/20 04:08:02;;;;;;;88.75;45.35;;;1.70;99.90;;;;;;5071511;28;20033;-73
2023/01/20 04:10:30;;;;;;;101.47;48.03;;;1.70;99.90;;;;;;5071595;28;20027;-73
2023/01/20 04:12:55;;;;;;;111.97;46.00;;;1.70;99.90;;;;;;5071394;28;20025;-73
2023/01/20 04:15:22;;;;;;;103.38;48.35;;;1.70;99.90;;;;;;5074908;28;20024;-74
2023/01/20 04:17:47;;;;;;;98.18;47.95;;;1.70;99.90;;;;;;5075723;28;20036;-74
2023/01/20 04:20:14;;;;;;;102.03;48.30;;;1.70;99.90;;;;;;5072946;28;20036;-74
2023/01/20 04:22:53;;;;;;;98.75;47.60;;;1.70;99.90;;;;;;5071773;28;20036;-73
2023/01/20 04:25:26;;;;;;;112.10;50.58;;;1.70;99.90;;;;;;5071319;28;20052;-72
2023/01/20 04:27:51;;;;;;;100.93;45.42;;;1.70;99.90;;;;;;5072830;28;20051;-73
2023/01/20 04:30:17;;;;;;;101.93;49.85;;;1.80;99.90;;;;;;5071132;28;20044;-73
2023/01/20 04:32:42;;;;;;;98.78;47.42;;;1.80;99.90;;;;;;5072354;28;20021;-72
2023/01/20 04:35:17;;;;;;;104.88;47.60;;;1.80;99.90;;;;;;5071732;28;20024;-73
2023/01/20 04:37:42;;;;;;;101.25;47.08;;;1.90;99.90;;;;;;5071252;28;20036;-75
2023/01/20 04:40:09;;;;;;;105.05;48.60;;;1.90;99.90;;;;;;5071732;28;20490;-72
2023/01/20 04:42:35;;;;;;;100.90;45.88;;;1.90;99.90;;;;;;5070711;28;20025;-74
2023/01/20 04:45:00;;;;;;;109.60;47.72;;;1.90;99.90;;;;;;5071119;28;20032;-74
2023/01/20 04:47:30;;;;;;;104.00;47.42;;;1.80;99.90;;;;;;5071490;28;20051;-75
2023/01/20 04:49:55;;;;;;;103.22;46.90;;;1.80;99.90;;;;;;5071850;28;20505;-74
2023/01/20 04:52:21;;;;;;;105.32;46.83;;;1.80;99.90;;;;;;5071461;28;20017;-74
2023/01/20 04:54:46;;;;;;;100.70;46.00;;;1.80;99.90;;;;;;5060578;28;20099;-74
2023/01/20 04:57:12;;;;;;;108.78;47.97;;;1.80;99.90;;;;;;5060938;28;20116;-75
2023/01/20 04:59:37;;;;;;;104.07;45.83;;;1.90;99.90;;;;;;5057108;28;20551;-74
2023/01/20 05:02:03;;;;;;;96.68;45.15;;;1.80;99.90;;;;;;5081784;28;20429;-73
2023/01/20 05:04:28;;;;;;;107.97;46.42;;;1.90;99.90;;;;;;5075257;28;20021;-74
2023/01/20 05:06:54;;;;;;;108.18;46.97;;;1.80;99.90;;;;;;5076854;28;20017;-74
2023/01/20 05:09:19;;;;;;;100.95;45.83;;;1.90;99.90;;;;;;5076137;28;20024;-74
2023/01/20 05:11:45;;;;;;;99.03;46.22;;;1.90;99.90;;;;;;5075615;28;20043;-73
2023/01/20 05:14:12;;;;;;;110.35;47.05;;;1.90;99.90;;;;;;5080598;28;20028;-73
2023/01/20 05:16:37;;;;;;;97.05;45.83;;;1.90;99.90;;;;;;5075655;28;20039;-73
2023/01/20 05:19:03;;;;;;;108.45;47.72;;;2.00;99.90;;;;;;5077649;28;20397;-72
2023/01/20 05:21:28;;;;;;;102.82;46.20;;;2.00;99.90;;;;;;5075825;28;20478;-72
2023/01/20 05:23:55;;;;;;;103.72;45.47;;;2.00;99.90;;;;;;5074848;28;20028;-73
2023/01/20 05:26:24;;;;;;;103.93;46.00;;;2.00;99.90;;;;;;5076411;28;20029;-75
2023/01/20 05:28:50;;;;;;;108.80;46.30;;;2.00;99.90;;;;;;5076993;28;20183;-75
2023/01/20 05:31:16;;;;;;;103.75;47.45;;;2.00;99.90;;;;;;5074677;28;20099;-73
2023/01/20 05:33:41;;;;;;;109.25;48.15;;;2.10;99.90;;;;;;5076223;28;20105;-75
2023/01/20 05:36:08;;;;;;;102.65;46.67;;;1.90;99.90;;;;;;5078912;28;20134;-74
2023/01/20 05:38:34;;;;;;;103.03;45.70;;;2.00;99.90;;;;;;5075327;28;20047;-73
2023/01/20 05:41:01;;;;;;;104.72;48.67;;;2.00;99.90;;;;;;5075274;28;20386;-75
2023/01/20 05:43:27;;;;;;;97.82;45.35;;;2.00;99.90;;;;;;5075083;28;20040;-75
2023/01/20 05:45:52;;;;;;;100.43;46.05;;;2.00;99.90;;;;;;5076879;28;20094;-76
2023/01/20 05:48:18;;;;;;;104.10;46.30;;;2.00;99.90;;;;;;5078098;28;20486;-74
2023/01/20 05:50:44;;;;;;;104.00;46.30;;;2.00;99.90;;;;;;5076430;28;20533;-76
2023/01/20 05:53:09;;;;;;;107.93;45.67;;;2.00;99.90;;;;;;5076673;28;20031;-74
2023/01/20 05:55:35;;;;;;;105.95;44.20;;;2.10;99.90;;;;;;5072814;28;20021;-73
2023/01/20 05:58:02;;;;;;;97.80;46.42;;;2.10;99.90;;;;;;5073670;28;20085;-73
2023/01/20 06:00:28;;;;;;;102.65;45.60;;;2.00;99.90;;;;;;5073693;28;20037;-73
2023/01/20 06:02:54;;;;;;;100.95;45.97;;;2.00;99.90;;;;;;5055403;28;20024;-73
2023/01/20 06:05:19;;;;;;;94.25;43.28;;;2.10;99.90;;;;;;5073001;28;20046;-75
2023/01/20 06:07:45;;;;;;;96.72;44.35;;;2.00;99.90;;;;;;5072741;28;20066;-75
2023/01/20 06:10:10;;;;;;;99.60;44.35;;;2.10;99.90;;;;;;5073187;28;20032;-74
2023/01/20 06:12:36;;;;;;;104.05;45.38;;;2.10;99.90;;;;;;5073270;28;20025;-73
2023/01/20 06:15:03;;;;;;;106.45;45.53;;;2.10;99.90;;;;;;5073205;28;20060;-73
2023/01/20 06:17:28;;;;;;;101.55;44.38;;;2.20;99.90;;;;;;5072781;28;20051;-73
2023/01/20 06:19:54;;;;;;;103.25;43.45;;;2.10;99.90;;;;;;5071429;28;20032;-75
2023/01/20 06:22:20;;;;;;;92.63;42.25;;;2.10;99.90;;;;;;5077301;28;20154;-74
2023/01/20 06:24:46;;;;;;;106.40;43.20;;;2.10;99.90;;;;;;5081767;28;20017;-74
2023/01/20 06:27:11;;;;;;;99.47;43.58;;;2.10;99.90;;;;;;5084611;28;20055;-75
2023/01/20 06:29:37;;;;;;;99.03;43.10;;;2.10;99.90;;;;;;5084063;28;20022;-74
2023/01/20 06:32:03;;;;;;;102.05;43.88;;;1.90;99.90;;;;;;5083909;28;20036;-73
2023/01/20 06:34:29;;;;;;;104.55;44.60;;;2.10;99.90;;;;;;5072386;28;20477;-72
2023/01/20 06:36:55;;;;;;;93.32;42.08;;;2.10;99.90;;;;;;5070086;28;20071;-74
2023/01/20 06:39:21;;;;;;;92.82;42.00;;;2.10;99.90;;;;;;5072347;28;20090;-74
2023/01/20 06:41:46;;;;;;;94.53;42.50;;;2.10;99.90;;;;;;5072535;28;20065;-74
2023/01/20 06:44:12;;;;;;;94.40;41.55;;;2.10;99.90;;;;;;5072365;28;20070;-72
2023/01/20 06:46:38;;;;;;;94.47;40.80;;;2.20;99.90;;;;;;5071467;28;20033;-74
2023/01/20 06:49:03;;;;;;;88.65;42.15;;;2.10;99.90;;;;;;5072203;28;20482;-73
2023/01/20 06:51:30;;;;;;;91.45;41.25;;;2.10;99.90;;;;;;5071603;28;20024;-75
2023/01/20 06:53:56;;;;;;;98.88;41.35;;;2.10;99.90;;;;;;5071819;28;20036;-72
2023/01/20 06:56:22;;;;;;;96.28;40.88;;;2.10;99.90;;;;;;5071375;28;20024;-74
2023/01/20 06:58:47;;;;;;;93.03;40.05;;;2.20;99.90;;;;;;5072094;28;20051;-73
2023/01/20 07:01:17;;;;;;;90.65;40.58;;;2.30;99.90;;;;;;5072236;28;20494;-74
2023/01/20 07:03:43;;;;;;;85.32;39.10;;;2.20;99.90;;;;;;5072164;28;20082;-76
2023/01/20 07:06:23;;;;;;;91.75;39.60;;;2.10;99.90;;;;;;5071020;28;20070;-73
2023/01/20 07:08:49;;;;;;;83.03;38.35;;;2.20;99.90;;;;;;5071257;28;20032;-75
2023/01/20 07:11:15;;;;;;;85.38;37.97;;;2.20;99.90;;;;;;5073491;28;20020;-74
2023/01/20 07:13:40;;;;;;;85.88;38.85;;;2.20;99.90;;;;;;5073017;28;20021;-75
2023/01/20 07:16:07;;;;;;;88.22;39.78;;;2.20;99.90;;;;;;5071952;28;20378;-73
2023/01/20 07:18:32;;;;;;;89.68;38.72;;;2.30;99.90;;;;;;5072209;28;20032;-74
2023/01/20 07:20:59;;;;;;;91.50;38.08;;;2.20;99.90;;;;;;5072367;28;20036;-72
2023/01/20 07:23:24;;;;;;;91.07;38.50;;;2.20;99.90;;;;;;5071725;28;20400;-72
2023/01/20 07:26:08;;;;;;;93.00;40.60;;;2.20;99.90;;;;;;5071534;28;20024;-72
2023/01/20 07:28:34;;;;;;;88.32;39.50;;;2.20;99.90;;;;;;5072713;28;20475;-74
2023/01/20 07:31:08;;;;;;;88.25;38.50;;;2.20;99.90;;;;;;5072756;28;20478;-74
2023/01/20 07:33:34;;;;;;;87.93;37.38;;;2.10;99.90;;;;;;5072108;28;20027;-72
2023/01/20 07:36:00;;;;;;;92.85;39.10;;;2.20;99.90;;;;;;5071424;28;20426;-72
2023/01/20 07:38:27;;;;;;;81.07;36.03;;;2.10;99.90;;;;;;5072094;28;20024;-73
2023/01/20 07:40:55;;;;;;;86.80;37.13;;;2.10;99.90;;;;;;5072837;28;20052;-72
2023/01/20 07:43:21;;;;;;;85.15;35.78;;;2.10;99.90;;;;;;5072097;28;20025;-72
2023/01/20 07:45:46;;;;;;;90.85;35.80;;;2.20;99.90;;;;;;5071184;28;20041;-72
2023/01/20 07:48:12;;;;;;;79.57;34.85;;;2.10;99.90;;;;;;5070855;28;20100;-73
2023/01/20 07:50:37;;;;;;;83.70;35.85;;;2.20;99.90;;;;;;5072667;28;20484;-73
2023/01/20 07:53:03;;;;;;;86.53;35.28;;;2.20;99.90;;;;;;5054331;28;20024;-73
2023/01/20 07:55:29;;;;;;;90.30;35.63;;;2.20;99.90;;;;;;5070708;28;20020;-73
2023/01/20 07:57:55;;;;;;;74.85;35.00;;;2.30;99.90;;;;;;5071696;28;20032;-74
2023/01/20 08:00:21;;;;;;;85.47;36.00;;;2.30;98.90;;;;;;5071600;28;20029;-73
2023/01/20 08:02:46;;;;;;;79.60;34.67;;;2.30;97.70;;;;;;5071619;28;20153;-72
2023/01/20 08:05:12;;;;;;;81.25;34.35;;;2.30;98.90;;;;;;5072655;28;20032;-73
2023/01/20 08:07:37;;;;;;;76.28;34.50;;;2.40;98.50;;;;;;5072916;28;20032;-72
2023/01/20 08:10:03;;;;;;;76.65;35.30;;;2.20;99.60;;;;;;5072652;28;20438;-75
2023/01/20 08:12:29;;;;;;;77.18;34.55;;;2.00;99.90;;;;;;5071834;28;20021;-72
2023/01/20 08:14:55;;;;;;;81.00;35.45;;;2.10;99.90;;;;;;5072459;28;20139;-74
2023/01/20 08:17:21;;;;;;;76.13;33.95;;;2.20;99.90;;;;;;5070848;28;20016;-74
2023/01/20 08:19:47;;;;;;;76.93;33.08;;;2.20;99.30;;;;;;5071711;28;20052;-73
2023/01/20 08:22:12;;;;;;;77.50;33.40;;;2.30;99.10;;;;;;5076139;28;20528;-73
2023/01/20 08:24:38;;;;;;;73.82;32.13;;;2.40;96.80;;;;;;5076832;28;20393;-73
2023/01/20 08:27:03;;;;;;;70.00;31.70;;;2.40;96.50;;;;;;5073913;28;20029;-73
2023/01/20 08:29:30;;;;;;;73.22;32.35;;;2.40;97.70;;;;;;5071596;28;20040;-73
2023/01/20 08:31:58;;;;;;;69.70;32.03;;;2.50;98.00;;;;;;5071909;28;20029;-72
2023/01/20 08:34:24;;;;;;;64.10;29.30;;;2.60;97.00;;;;;;5074654;28;20024;-72
2023/01/20 08:36:52;;;;;;;68.38;30.85;;;2.60;94.30;;;;;;5076894;28;20155;-73
2023/01/20 08:39:18;;;;;;;64.95;29.50;;;2.70;92.90;;;;;;5075513;28;20032;-74
2023/01/20 08:41:45;;;;;;;69.47;29.83;;;2.70;95.20;;;;;;5075060;28;20021;-75
2023/01/20 08:44:11;;;;;;;73.95;30.52;;;2.60;90.20;;;;;;5075290;28;20504;-72
2023/01/20 08:46:38;;;;;;;68.78;29.55;;;2.80;90.20;;;;;;5056712;28;20059;-74
2023/01/20 08:49:08;;;;;;;63.67;29.17;;;2.80;91.50;;;;;;5074942;28;20386;-74
2023/01/20 08:51:34;;;;;;;64.40;29.33;;;2.80;92.20;;;;;;5074874;28;20032;-75
2023/01/20 08:54:00;;;;;;;65.18;29.30;;;2.90;92.60;;;;;;5075079;28;20032;-76
2023/01/20 08:56:27;;;;;;;62.15;29.02;;;3.00;91.00;;;;;;5074593;28;20020;-75
2023/01/20 08:58:52;;;;;;;61.63;28.20;;;3.20;90.60;;;;;;5076856;28;20025;-75
2023/01/20 09:01:26;;;;;;;62.05;27.63;;;3.20;84.80;;;;;;5076404;28;20086;-75
2023/01/20 09:03:52;;;;;;;69.40;28.05;;;3.40;81.00;;;;;;5076294;28;20082;-74
2023/01/20 09:06:20;;;;;;;63.92;28.38;;;3.50;67.60;;;;;;5075745;28;20412;-75
2023/01/20 09:08:46;;;;;;;60.25;27.38;;;3.70;58.50;;;;;;5076250;28;20025;-76
2023/01/20 09:11:15;;;;;;;58.50;28.30;;;3.70;54.50;;;;;;5074572;28;20491;-74
2023/01/20 09:13:41;;;;;;;60.03;27.33;;;3.70;45.10;;;;;;5074497;28;20032;-72
2023/01/20 09:16:07;;;;;;;61.38;28.17;;;3.60;48.20;;;;;;5074100;28;20082;-73
2023/01/20 09:18:34;;;;;;;65.13;27.65;;;3.60;43.40;;;;;;5074545;28;20032;-74
2023/01/20 09:21:06;;;;;;;67.45;27.90;;;3.60;39.20;;;;;;5074494;28;20082;-74
2023/01/20 09:23:37;;;;;;;62.60;28.38;;;3.60;49.80;;;;;;5075317;28;20102;-74
2023/01/20 09:26:04;;;;;;;59.40;27.15;;;3.70;53.00;;;;;;5073901;28;20027;-76
2023/01/20 09:28:30;;;;;;;62.20;28.15;;;3.80;34.40;;;;;;5073977;28;20063;-77
2023/01/20 09:31:00;;;;;;;54.05;25.27;;;3.80;34.30;;;;;;5074626;28;20370;-76
2023/01/20 09:33:26;;;;;;;61.22;28.50;;;3.70;25.70;;;;;;5075442;28;20107;-77
2023/01/20 09:35:55;;;;;;;62.08;26.38;;;3.70;34.70;;;;;;5080581;28;20055;-74
2023/01/20 09:44:43;;;;;;;55.83;25.63;;;3.80;33.60;;;;;;5074195;28;20421;-71
2023/01/20 09:47:37;;;;;;;52.78;25.13;;;3.80;27.10;;;;;;5072045;28;20324;-72
2023/01/20 09:53:01;;;;;;;53.83;25.25;;;4.10;23.50;;;;;;5068298;28;20036;-73
2023/01/20 09:55:49;;;;;;;52.60;24.95;;;4.10;15.70;;;;;;5073415;28;20031;-73
2023/01/20 09:58:21;;;;;;;52.53;24.58;;;4.20;13.60;;;;;;5073929;28;20099;-72
2023/01/20 10:00:54;;;;;;;53.55;25.00;;;4.40;1.00;;;;;;5073984;28;20115;-75
2023/01/20 10:03:23;;;;;;;52.30;24.05;;;4.50;1.00;;;;;;5074513;28;20029;-74
2023/01/20 10:05:53;;;;;;;53.70;25.73;;;4.60;1.00;;;;;;5074160;28;20378;-72
2023/01/20 10:08:38;;;;;;;52.25;24.52;;;4.70;1.00;;;;;;5074608;28;20024;-72
2023/01/20 10:11:17;;;;;;;49.47;23.88;;;4.80;1.00;;;;;;5075039;28;20036;-71
2023/01/20 10:13:54;;;;;;;48.00;23.83;;;4.80;1.00;;;;;;5073354;28;20032;-72
2023/01/20 10:16:33;;;;;;;53.17;24.55;;;4.80;1.00;;;;;;5072741;28;20040;-73
2023/01/20 10:19:26;;;;;;;56.63;24.85;;;4.80;1.00;;;;;;5073176;28;20033;-72
2023/01/20 10:22:13;;;;;;;52.85;23.30;;;4.70;1.00;;;;;;5072995;28;20046;-71
2023/01/20 10:24:47;;;;;;;48.33;23.25;;;4.60;1.00;;;;;;5073078;28;20539;-71
2023/01/20 10:27:12;;;;;;;61.05;23.85;;;4.40;1.00;;;;;;5072316;28;20028;-71
2023/01/20 10:29:46;;;;;;;49.38;23.15;;;4.30;1.00;;;;;;5072957;28;20021;-71
2023/01/20 10:32:32;;;;;;;61.75;24.20;;;4.30;1.00;;;;;;5072784;28;20052;-70
2023/01/20 10:35:06;;;;;;;54.10;24.08;;;4.30;1.00;;;;;;5073098;28;20028;-71
2023/01/20 10:37:34;;;;;;;53.97;24.13;;;4.30;1.00;;;;;;5072062;28;20062;-71
2023/01/20 10:40:15;;;;;;;49.13;22.52;;;4.30;1.00;;;;;;5073399;28;20028;-73
2023/01/20 10:42:48;;;;;;;48.63;23.05;;;4.30;1.00;;;;;;5077296;28;20029;-73
2023/01/20 10:45:25;;;;;;;50.33;23.33;;;4.40;1.00;;;;;;5074657;28;20056;-73
2023/01/20 10:48:18;;;;;;;53.17;23.48;;;4.40;1.00;;;;;;5074140;28;20029;-74
2023/01/20 10:50:58;;;;;;;49.53;23.02;;;4.40;1.00;;;;;;5072886;28;20032;-73
2023/01/20 10:53:34;;;;;;;57.65;24.33;;;4.50;1.00;;;;;;5073918;28;20470;-73
2023/01/20 10:56:29;;;;;;;46.78;22.70;;;4.70;1.00;;;;;;5072762;28;20021;-73
2023/01/20 10:59:06;;;;;;;54.38;23.17;;;4.70;1.00;;;;;;5070789;28;20046;-74
2023/01/20 11:01:31;;;;;;;49.63;22.80;;;4.80;1.00;;;;;;5071443;28;20036;-74
2023/01/20 11:03:57;;;;;;;50.15;22.85;;;4.90;1.00;;;;;;5073554;28;20028;-73
2023/01/20 11:06:25;;;;;;;51.13;24.02;;;5.10;1.00;;;;;;5050437;28;20029;-74
2023/01/20 11:08:51;;;;;;;51.28;23.67;;;5.30;1.00;;;;;;5072985;28;20404;-73
2023/01/20 11:11:20;;;;;;;51.83;23.70;;;5.50;3.20;;;;;;5072355;28;20539;-71
2023/01/20 11:13:47;;;;;;;44.85;22.15;;;5.70;1.00;;;;;;5070963;28;20043;-71
2023/01/20 11:16:27;;;;;;;45.42;22.42;;;6.00;1.00;;;;;;5071644;28;20027;-72
2023/01/20 11:19:02;;;;;;;49.55;24.00;;;6.20;1.00;;;;;;5072576;28;20378;-76
2023/01/20 11:21:32;;;;;;;45.97;22.27;;;6.30;1.00;;;;;;5071910;28;20028;-72
2023/01/20 11:23:59;;;;;;;45.58;22.25;;;6.30;1.00;;;;;;5072053;28;20059;-72
2023/01/20 11:26:27;;;;;;;44.72;23.20;;;6.30;99.90;;;;;;5071281;28;20032;-73
2023/01/20 11:28:54;;;;;;;52.42;24.27;;;6.50;99.90;;;;;;5071795;28;20043;-72
2023/01/20 11:31:33;;;;;;;46.60;22.88;;;6.60;99.90;;;;;;5071951;28;20035;-72
2023/01/20 11:34:02;;;;;;;43.78;21.35;;;6.50;99.90;;;;;;5073869;28;20474;-73
2023/01/20 11:36:28;;;;;;;43.00;21.90;;;6.40;99.90;;;;;;5074760;28;20044;-73
2023/01/20 11:38:56;;;;;;;46.95;23.10;;;6.30;99.90;;;;;;5073669;28;20124;-72
2023/01/20 11:41:29;;;;;;;45.92;23.45;;;6.30;99.90;;;;;;5071703;28;20060;-73
2023/01/20 11:43:57;;;;;;;60.28;29.05;;;6.30;99.90;;;;;;5071982;28;20023;-72
2023/01/20 11:46:24;;;;;;;50.50;23.40;;;6.20;99.90;;;;;;5071029;28;20033;-73
2023/01/20 11:49:18;;;;;;;49.40;24.52;;;6.10;99.90;;;;;;5072077;28;20070;-74
2023/01/20 11:51:48;;;;;;;44.50;23.15;;;6.10;99.90;;;;;;5071694;28;20029;-71
2023/01/20 11:54:20;;;;;;;55.42;24.08;;;6.00;99.90;;;;;;5071512;28;20407;-72
2023/01/20 11:56:50;;;;;;;83.53;37.90;;;5.90;99.90;;;;;;5070284;28;20103;-70
2023/01/20 11:59:21;;;;;;;64.45;27.80;;;5.90;1.00;;;;;;5071942;28;20374;-71
2023/01/20 12:02:03;;;;;;;50.60;24.85;;;5.90;1.00;;;;;;5073222;28;20051;-73
2023/01/20 12:05:01;;;;;;;43.53;22.40;;;6.00;1.00;;;;;;5072114;28;20040;-72
2023/01/20 12:07:43;;;;;;;48.50;23.35;;;5.90;1.00;;;;;;5071336;28;20032;-74
2023/01/20 12:10:20;;;;;;;44.60;22.85;;;6.10;1.00;;;;;;5074304;28;20470;-73
2023/01/20 12:12:53;;;;;;;49.97;24.58;;;6.40;1.00;;;;;;5075935;28;20116;-72
2023/01/20 12:15:25;;;;;;;48.55;22.35;;;6.80;1.00;;;;;;5075585;28;20512;-72
2023/01/20 12:18:11;;;;;;;51.05;23.92;;;7.00;99.90;;;;;;5076020;28;20087;-70
2023/01/20 12:20:52;;;;;;;53.42;25.35;;;7.30;99.90;;;;;;5075416;28;20052;-71
2023/01/20 12:23:46;;;;;;;42.75;22.00;;;7.50;99.90;;;;;;5075385;28;20047;-73
2023/01/20 12:26:13;;;;;;;49.28;23.23;;;7.60;99.90;;;;;;5074891;28;20032;-72
2023/01/20 12:28:41;;;;;;;45.00;21.30;;;7.60;1.60;;;;;;5075064;28;20032;-71
2023/01/20 12:31:09;;;;;;;41.28;20.45;;;7.50;1.00;;;;;;5075340;28;20013;-73
2023/01/20 12:33:39;;;;;;;42.88;22.00;;;7.50;1.00;;;;;;5075685;28;20038;-72
2023/01/20 12:36:10;;;;;;;49.67;21.92;;;7.80;1.00;;;;;;5074414;28;20027;-72
2023/01/20 12:38:59;;;;;;;48.80;23.30;;;8.40;1.00;;;;;;5075763;28;20401;-72
2023/01/20 12:41:43;;;;;;;42.00;19.67;;;9.10;1.00;;;;;;5074260;28;20036;-73
2023/01/20 12:44:44;;;;;;;42.58;19.95;;;10.20;1.00;;;;;;5075357;28;20033;-72
2023/01/20 12:47:31;;;;;;;43.47;21.88;;;10.70;13.40;;;;;;5069939;28;20417;-72
2023/01/20 12:50:10;;;;;;;35.53;19.80;;;11.20;99.90;;;;;;5074837;28;20108;-72
2023/01/20 12:53:13;;;;;;;41.00;19.98;;;12.00;99.90;;;;;;5074472;28;20103;-72
2023/01/20 12:56:00;;;;;;;36.47;19.35;;;12.80;1.00;;;;;;5074168;28;20028;-71
2023/01/20 12:58:40;;;;;;;34.40;19.38;;;13.40;99.90;;;;;;5074684;28;20055;-72
2023/01/20 13:01:15;;;;;;;35.75;19.38;;;13.20;99.90;;;;;;5074486;28;20545;-71
2023/01/20 13:04:09;;;;;;;33.47;18.00;;;13.60;99.90;;;;;;5074481;28;20029;-72